Avatar — WDF2170 — position and weather

sailwx.info

Track history (hours):
 
Tides and Currents Weather Stations Pressure Air Temp Water Temp Dewpoint Dewpoint Depression Visibility Wind Speed Wind Dir Waves Ship Positions

Avatar

Owner: Poll, Ian G, Edmonds, WA. More information available from US FCC via Universal Licensing System and Coast Guard Vessel Documentation Center.

Last reported at 2018-Jul-22 22:07 UTC. Time now 2018-Jul-23 17:22 UTC.
Position N 47°38' W 122°24'.

Length 16 m.

MMSI: 366765280.

Date/timePositionNaut miles runAvg speedWind from/ knotsBaromVisibWave heightAir tempDewpointWater temp
2018-Jul-22 22:07N 47°38' W 122°24'  
2018-Jul-20 16:03N 47°38' W 122°24'0 0.8
2018-Jul-20 16:00N 47°38' W 122°24'0 0.0
2018-Jul-20 15:30N 47°38' W 122°24'0 0.1
2018-Jul-20 15:00N 47°38' W 122°24'0 0.0
2018-Jul-20 14:30N 47°38' W 122°24'0 0.0
2018-Jul-20 14:00N 47°38' W 122°24'0 0.0
2018-Jul-20 13:30N 47°38' W 122°24'0 0.0
2018-Jul-20 13:00N 47°38' W 122°24'0 0.0
2018-Jul-20 12:30N 47°38' W 122°24'0 0.0
2018-Jul-20 12:00N 47°38' W 122°24'0 0.1
2018-Jul-20 11:30N 47°38' W 122°24'0 0.0
2018-Jul-20 11:00N 47°38' W 122°24'0 0.1
2018-Jul-20 10:30N 47°38' W 122°24'0 0.1
2018-Jul-20 10:00N 47°38' W 122°24'0 0.1
2018-Jul-20 09:30N 47°38' W 122°24'0 0.1
2018-Jul-20 09:00N 47°38' W 122°24'0 0.0
2018-Jul-20 08:30N 47°38' W 122°24'0 0.1
2018-Jul-20 08:00N 47°38' W 122°24'0 0.0
2018-Jul-20 07:30N 47°38' W 122°24'0 0.0
2018-Jul-20 07:00N 47°38' W 122°24'0 0.0
2018-Jul-20 06:30N 47°38' W 122°24'0 0.0
2018-Jul-20 06:00N 47°38' W 122°24'0 0.0
2018-Jul-20 05:30N 47°38' W 122°24'0 0.0
2018-Jul-20 04:57N 47°38' W 122°24'0 0.0
2018-Jul-20 04:30N 47°38' W 122°24'0 0.0
2018-Jul-20 04:00N 47°38' W 122°24'0 0.2
2018-Jul-20 03:30N 47°38' W 122°24'1 1.2
2018-Jul-20 02:59N 47°38' W 122°24'2 3.9
2018-Jul-20 02:29N 47°37' W 122°22'2 3.3
2018-Jul-20 01:59N 47°38' W 122°24'0 0.7
2018-Jul-20 01:28N 47°38' W 122°24'0 0.0
2018-Jul-20 00:58N 47°38' W 122°24'0 0.0
2018-Jul-20 00:28N 47°38' W 122°24'0 0.0
2018-Jul-19 23:58N 47°38' W 122°24'0 0.0
2018-Jul-19 23:28N 47°38' W 122°24'0 0.0
2018-Jul-19 16:32N 47°38' W 122°24'0 0.0
2018-Jul-19 16:29N 47°38' W 122°24'0 0.0
2018-Jul-19 15:59N 47°38' W 122°24'0 0.0
2018-Jul-19 15:29N 47°38' W 122°24'0 0.0
2018-Jul-19 14:59N 47°38' W 122°24'0 0.0
2018-Jul-19 13:59N 47°38' W 122°24'0 0.0
2018-Jul-19 13:29N 47°38' W 122°24'0 0.0
2018-Jul-19 12:59N 47°38' W 122°24'0 0.0
2018-Jul-19 12:29N 47°38' W 122°24'0 0.0
2018-Jul-19 11:59N 47°38' W 122°24'0 0.0
2018-Jul-19 11:29N 47°38' W 122°24'0 0.0
2018-Jul-19 10:59N 47°38' W 122°24'0 0.0
2018-Jul-19 10:29N 47°38' W 122°24'0 0.0
2018-Jul-19 09:59N 47°38' W 122°24'0 0.0
2018-Jul-19 09:29N 47°38' W 122°24'0 0.0
2018-Jul-19 08:59N 47°38' W 122°24'0 0.0
2018-Jul-19 08:29N 47°38' W 122°24'0 0.0
2018-Jul-19 07:59N 47°38' W 122°24'0 0.0
2018-Jul-19 07:29N 47°38' W 122°24'0 0.0
2018-Jul-19 06:59N 47°38' W 122°24'0 0.0
2018-Jul-19 06:29N 47°38' W 122°24'0 0.0
2018-Jul-19 05:59N 47°38' W 122°24'0 0.0
2018-Jul-19 05:29N 47°38' W 122°24'0 0.0
2018-Jul-19 04:59N 47°38' W 122°24'0 0.0
2018-Jul-19 04:29N 47°38' W 122°24'0 0.0
2018-Jul-19 03:56N 47°38' W 122°24'0 1.1
2018-Jul-19 03:30N 47°38' W 122°23'1 2.1
2018-Jul-19 03:00N 47°37' W 122°24'2 3.0
2018-Jul-19 02:30N 47°36' W 122°21'2 3.2
2018-Jul-19 02:00N 47°37' W 122°23'1 1.5
2018-Jul-19 01:30N 47°38' W 122°24'1 1.9
2018-Jul-19 00:58N 47°38' W 122°26'0 0.3
2018-Jul-19 00:28N 47°38' W 122°26'2 3.8
2018-Jul-18 23:59N 47°38' W 122°23'2 3.8
2018-Jul-18 23:30N 47°36' W 122°22'0 0.0
2018-Jul-18 23:00N 47°36' W 122°22'1 1.6
2018-Jul-18 22:30N 47°37' W 122°21'2 3.1
2018-Jul-18 22:00N 47°38' W 122°23'0 0.4
2018-Jul-18 21:29N 47°38' W 122°24'0 0.0
2018-Jul-18 20:59N 47°38' W 122°24'0 0.0
2018-Jul-18 20:29N 47°38' W 122°24'  
Track history (hours):
 
Tides and Currents Weather Stations Pressure Air Temp Water Temp Dewpoint Dewpoint Depression Visibility Wind Speed Wind Dir Waves Ship Positions

Avatar

Owner: Poll, Ian G, Edmonds, WA. More information available from US FCC via Universal Licensing System and Coast Guard Vessel Documentation Center.

Last reported at 2018-Jul-22 22:07 UTC. Time now 2018-Jul-23 17:22 UTC.
Position N 47°38' W 122°24'.

Length 16 m.

MMSI: 366765280.

Date/timePositionNaut miles runAvg speedWind from/ knotsBaromVisibWave heightAir tempDewpointWater temp
2018-Jul-22 22:07N 47°38' W 122°24'  
2018-Jul-20 16:03N 47°38' W 122°24'0 0.8
2018-Jul-20 16:00N 47°38' W 122°24'0 0.0
2018-Jul-20 15:30N 47°38' W 122°24'0 0.1
2018-Jul-20 15:00N 47°38' W 122°24'0 0.0
2018-Jul-20 14:30N 47°38' W 122°24'0 0.0
2018-Jul-20 14:00N 47°38' W 122°24'0 0.0
2018-Jul-20 13:30N 47°38' W 122°24'0 0.0
2018-Jul-20 13:00N 47°38' W 122°24'0 0.0
2018-Jul-20 12:30N 47°38' W 122°24'0 0.0
2018-Jul-20 12:00N 47°38' W 122°24'0 0.1
2018-Jul-20 11:30N 47°38' W 122°24'0 0.0
2018-Jul-20 11:00N 47°38' W 122°24'0 0.1
2018-Jul-20 10:30N 47°38' W 122°24'0 0.1
2018-Jul-20 10:00N 47°38' W 122°24'0 0.1
2018-Jul-20 09:30N 47°38' W 122°24'0 0.1
2018-Jul-20 09:00N 47°38' W 122°24'0 0.0
2018-Jul-20 08:30N 47°38' W 122°24'0 0.1
2018-Jul-20 08:00N 47°38' W 122°24'0 0.0
2018-Jul-20 07:30N 47°38' W 122°24'0 0.0
2018-Jul-20 07:00N 47°38' W 122°24'0 0.0
2018-Jul-20 06:30N 47°38' W 122°24'0 0.0
2018-Jul-20 06:00N 47°38' W 122°24'0 0.0
2018-Jul-20 05:30N 47°38' W 122°24'0 0.0
2018-Jul-20 04:57N 47°38' W 122°24'0 0.0
2018-Jul-20 04:30N 47°38' W 122°24'0 0.0
2018-Jul-20 04:00N 47°38' W 122°24'0 0.2
2018-Jul-20 03:30N 47°38' W 122°24'1 1.2
2018-Jul-20 02:59N 47°38' W 122°24'2 3.9
2018-Jul-20 02:29N 47°37' W 122°22'2 3.3
2018-Jul-20 01:59N 47°38' W 122°24'0 0.7
2018-Jul-20 01:28N 47°38' W 122°24'0 0.0
2018-Jul-20 00:58N 47°38' W 122°24'0 0.0
2018-Jul-20 00:28N 47°38' W 122°24'0 0.0
2018-Jul-19 23:58N 47°38' W 122°24'0 0.0
2018-Jul-19 23:28N 47°38' W 122°24'0 0.0
2018-Jul-19 16:32N 47°38' W 122°24'0 0.0
2018-Jul-19 16:29N 47°38' W 122°24'0 0.0
2018-Jul-19 15:59N 47°38' W 122°24'0 0.0
2018-Jul-19 15:29N 47°38' W 122°24'0 0.0
2018-Jul-19 14:59N 47°38' W 122°24'0 0.0
2018-Jul-19 13:59N 47°38' W 122°24'0 0.0
2018-Jul-19 13:29N 47°38' W 122°24'0 0.0
2018-Jul-19 12:59N 47°38' W 122°24'0 0.0
2018-Jul-19 12:29N 47°38' W 122°24'0 0.0
2018-Jul-19 11:59N 47°38' W 122°24'0 0.0
2018-Jul-19 11:29N 47°38' W 122°24'0 0.0
2018-Jul-19 10:59N 47°38' W 122°24'0 0.0
2018-Jul-19 10:29N 47°38' W 122°24'0 0.0
2018-Jul-19 09:59N 47°38' W 122°24'0 0.0
2018-Jul-19 09:29N 47°38' W 122°24'0 0.0
2018-Jul-19 08:59N 47°38' W 122°24'0 0.0
2018-Jul-19 08:29N 47°38' W 122°24'0 0.0
2018-Jul-19 07:59N 47°38' W 122°24'0 0.0
2018-Jul-19 07:29N 47°38' W 122°24'0 0.0
2018-Jul-19 06:59N 47°38' W 122°24'0 0.0
2018-Jul-19 06:29N 47°38' W 122°24'0 0.0
2018-Jul-19 05:59N 47°38' W 122°24'0 0.0
2018-Jul-19 05:29N 47°38' W 122°24'0 0.0
2018-Jul-19 04:59N 47°38' W 122°24'0 0.0
2018-Jul-19 04:29N 47°38' W 122°24'0 0.0
2018-Jul-19 03:56N 47°38' W 122°24'0 1.1
2018-Jul-19 03:30N 47°38' W 122°23'1 2.1
2018-Jul-19 03:00N 47°37' W 122°24'2 3.0
2018-Jul-19 02:30N 47°36' W 122°21'2 3.2
2018-Jul-19 02:00N 47°37' W 122°23'1 1.5
2018-Jul-19 01:30N 47°38' W 122°24'1 1.9
2018-Jul-19 00:58N 47°38' W 122°26'0 0.3
2018-Jul-19 00:28N 47°38' W 122°26'2 3.8
2018-Jul-18 23:59N 47°38' W 122°23'2 3.8
2018-Jul-18 23:30N 47°36' W 122°22'0 0.0
2018-Jul-18 23:00N 47°36' W 122°22'1 1.6
2018-Jul-18 22:30N 47°37' W 122°21'2 3.1
2018-Jul-18 22:00N 47°38' W 122°23'0 0.4
2018-Jul-18 21:29N 47°38' W 122°24'0 0.0
2018-Jul-18 20:59N 47°38' W 122°24'0 0.0
2018-Jul-18 20:29N 47°38' W 122°24'  

Dump ship's entire track history